Main page
METAR-TAF:

METAR-TAF

Airports :

Yakubu Gowon Airport

Jos, Nigeria

latitude: 09-52N, longitude: 008-54E, elevation: 1295 m

Current weather observation

The report was made 21 hours and 34 minutes ago, at 08:00 UTC
Wind 4 kt from the Southeast
Temperature 20°C
Humidity 28%
Pressure 1023 hPa
Visibility 10 km or more
no clouds below 1500 m and no cumulonimbus

METAR: DNJO 230800Z 13004KT CAVOK 20/01 Q1023

Time: 06:34 (05:34 UTC)

Forecast

The report was made 6 hours and 34 minutes ago, at 23:00 UTC
Forecast valid from 24 at 00 UTC to 25 at 06 UTC
Wind 10 kt from the East/Southeast
Visibility: 8000 m

TAF: DNJO 232300Z 2400/2506 11010KT 8000 NSC

Weather observations and forecasts of more than 4000 airports (METAR and TAF reports).

The available stations are represented by yellow and red dots on the map.

Hover mouse over dot to see the name of the station.

Then click to see weather observations and forecasts.

To change the map : click on the green buttons with a black cross to zoom in, on the green button with a dash to zoom out, or on the green arrows for adjacent maps.


METAR-TAF: